createdAt,value
2023-05-18T00:01:05.450Z,8.40
2023-05-18T00:06:07.349Z,8.38
2023-05-18T00:11:09.847Z,8.30
2023-05-18T00:16:12.274Z,8.30
2023-05-18T00:21:11.718Z,8.26
2023-05-18T00:26:10.805Z,8.20
2023-05-18T00:31:10.694Z,8.20
2023-05-18T00:36:11.833Z,8.10
2023-05-18T00:41:11.397Z,8.10
2023-05-18T00:46:12.915Z,8.00
2023-05-18T00:51:12.960Z,8.00
2023-05-18T00:56:13.791Z,8.00
2023-05-18T01:01:13.758Z,7.92
2023-05-18T01:06:15.041Z,7.90
2023-05-18T01:11:36.126Z,7.90
2023-05-18T01:16:45.013Z,7.90
2023-05-18T01:22:05.904Z,7.90
2023-05-18T01:27:09.769Z,7.80
2023-05-18T01:32:18.674Z,7.80
2023-05-18T01:37:18.009Z,7.70
2023-05-18T01:42:27.237Z,7.70
2023-05-18T01:47:32.614Z,7.68
2023-05-18T01:52:41.525Z,7.60
2023-05-18T01:57:43.842Z,7.60
2023-05-18T02:02:43.176Z,7.50
2023-05-18T02:07:44.230Z,7.50
2023-05-18T02:12:45.133Z,7.46
2023-05-18T02:17:44.095Z,7.40
2023-05-18T02:22:44.797Z,7.40
2023-05-18T02:27:44.865Z,7.30
2023-05-18T02:32:47.426Z,7.30
2023-05-18T02:37:47.608Z,7.20
2023-05-18T02:42:46.752Z,7.10
2023-05-18T02:47:45.855Z,7.00
2023-05-18T02:52:45.529Z,7.00
2023-05-18T02:57:47.158Z,6.90
2023-05-18T03:02:50.585Z,6.90
2023-05-18T03:07:51.131Z,6.88
2023-05-18T03:12:51.602Z,6.86
2023-05-18T03:17:52.918Z,6.80
2023-05-18T03:22:53.117Z,6.80
2023-05-18T03:27:52.888Z,6.70
2023-05-18T03:32:53.389Z,6.70
2023-05-18T03:37:53.335Z,6.70
2023-05-18T03:42:51.939Z,6.70
2023-05-18T03:47:52.015Z,6.70
2023-05-18T03:52:53.037Z,6.70
2023-05-18T03:57:54.039Z,6.70
2023-05-18T04:02:54.311Z,6.70
2023-05-18T04:07:57.741Z,6.70
2023-05-18T04:12:57.511Z,6.72
2023-05-18T04:17:57.490Z,6.70
2023-05-18T04:22:59.103Z,6.70
2023-05-18T04:27:59.753Z,6.80
2023-05-18T04:33:00.474Z,6.80
2023-05-18T04:38:00.667Z,6.90
2023-05-18T04:43:00.998Z,7.08
2023-05-18T04:48:03.374Z,7.20
2023-05-18T04:53:07.948Z,7.40
2023-05-18T04:58:10.497Z,7.58
2023-05-18T05:03:13.120Z,7.70
2023-05-18T05:08:13.741Z,7.84
2023-05-18T05:13:12.868Z,8.00
2023-05-18T05:18:12.748Z,8.10
2023-05-18T05:23:13.557Z,8.30
2023-05-18T05:28:15.192Z,8.42
2023-05-18T05:33:15.413Z,8.60
2023-05-18T05:38:16.756Z,8.70
2023-05-18T05:43:16.657Z,8.80
2023-05-18T05:48:17.774Z,9.00
2023-05-18T05:53:21.242Z,9.10
2023-05-18T05:58:21.538Z,9.18
2023-05-18T06:03:37.958Z,9.30
2023-05-18T06:08:40.327Z,9.48
2023-05-18T06:13:39.762Z,9.60
2023-05-18T06:18:39.743Z,9.70
2023-05-18T06:23:41.958Z,9.88
2023-05-18T06:28:55.658Z,10.00
2023-05-18T06:34:02.289Z,10.10
2023-05-18T06:39:02.004Z,10.20
2023-05-18T06:44:02.522Z,10.30
2023-05-18T06:49:08.291Z,10.30
2023-05-18T06:54:07.542Z,10.30
2023-05-18T06:59:06.839Z,10.40
2023-05-18T07:04:07.045Z,10.40
2023-05-18T07:09:08.369Z,10.50
2023-05-18T07:14:07.987Z,10.70
2023-05-18T07:19:08.433Z,10.90
2023-05-18T07:24:08.473Z,11.10
2023-05-18T07:29:07.392Z,11.30
2023-05-18T07:34:06.707Z,11.40
2023-05-18T07:39:06.494Z,11.60
2023-05-18T07:44:05.907Z,11.76
2023-05-18T07:49:05.438Z,11.90
2023-05-18T07:54:05.535Z,12.00
2023-05-18T07:59:04.237Z,12.20
2023-05-18T08:04:04.149Z,12.46
2023-05-18T08:09:03.939Z,12.60
2023-05-18T08:14:03.105Z,12.80
2023-05-18T08:19:01.860Z,13.10
2023-05-18T08:24:01.171Z,13.30
2023-05-18T08:29:00.447Z,13.50
2023-05-18T08:34:00.770Z,13.70
2023-05-18T08:39:00.000Z,13.90
2023-05-18T08:44:11.090Z,14.00
2023-05-18T08:49:13.113Z,14.10
2023-05-18T08:54:16.822Z,14.30
2023-05-18T08:59:20.311Z,14.50
2023-05-18T09:04:20.591Z,14.74
2023-05-18T09:09:24.185Z,14.88
2023-05-18T09:14:26.210Z,14.80
2023-05-18T09:19:26.104Z,14.80
2023-05-18T09:24:25.765Z,14.76
2023-05-18T09:29:25.356Z,14.88
2023-05-18T09:34:25.181Z,15.06
2023-05-18T09:39:24.742Z,15.10
2023-05-18T09:44:35.195Z,15.30
2023-05-18T09:49:35.345Z,15.42
2023-05-18T09:54:37.117Z,15.50
2023-05-18T09:59:39.156Z,15.62
2023-05-18T10:04:43.655Z,15.90
2023-05-18T10:09:45.679Z,16.20
2023-05-18T10:14:47.369Z,16.30
2023-05-18T10:19:47.504Z,16.40
2023-05-18T10:24:52.211Z,16.50
2023-05-18T10:29:52.723Z,16.60
2023-05-18T10:34:54.358Z,16.70
2023-05-18T10:40:01.207Z,16.80
2023-05-18T10:45:01.916Z,16.90
2023-05-18T10:50:05.788Z,17.10
2023-05-18T10:55:06.182Z,17.10
2023-05-18T11:00:09.487Z,17.28
2023-05-18T11:05:13.011Z,17.40
2023-05-18T11:10:15.635Z,17.54
2023-05-18T11:15:19.324Z,17.40
2023-05-18T11:20:27.121Z,17.40
2023-05-18T11:25:49.729Z,17.30
2023-05-18T11:30:53.487Z,17.20
2023-05-18T11:36:11.775Z,17.40
2023-05-18T11:41:30.071Z,17.70
2023-05-18T11:46:29.876Z,18.10
2023-05-18T11:51:32.224Z,18.34
2023-05-18T11:56:35.155Z,18.66
2023-05-18T12:01:35.205Z,18.70
2023-05-18T12:06:37.115Z,18.60
2023-05-18T12:11:36.955Z,18.80
2023-05-18T12:16:40.791Z,18.80
2023-05-18T12:21:41.432Z,18.80
2023-05-18T12:26:42.577Z,18.40
2023-05-18T12:31:45.117Z,18.04
2023-05-18T12:36:56.095Z,18.30
2023-05-18T12:41:55.340Z,18.50
2023-05-18T12:46:54.839Z,18.72
2023-05-18T12:51:57.956Z,18.90
2023-05-18T12:57:02.183Z,18.72
2023-05-18T13:02:01.754Z,18.50
2023-05-18T13:07:02.074Z,18.30
2023-05-18T13:12:07.626Z,18.30
2023-05-18T13:17:08.329Z,18.10
2023-05-18T13:22:08.578Z,18.10
2023-05-18T13:27:08.242Z,18.00
2023-05-18T13:32:09.548Z,17.80
2023-05-18T13:37:11.459Z,17.64
2023-05-18T13:42:12.416Z,17.40
2023-05-18T13:47:12.182Z,17.30
2023-05-18T13:52:11.427Z,17.30
2023-05-18T13:57:11.137Z,17.40
2023-05-18T14:02:10.968Z,17.40
2023-05-18T14:07:11.108Z,17.20
2023-05-18T14:12:13.386Z,17.00
2023-05-18T14:17:13.829Z,16.80
2023-05-18T14:22:13.904Z,16.64
2023-05-18T14:27:13.243Z,16.50
2023-05-18T14:32:13.295Z,16.32
2023-05-18T14:37:12.522Z,16.20
2023-05-18T14:42:13.379Z,16.10
2023-05-18T14:47:12.859Z,16.00
2023-05-18T14:52:14.606Z,15.90
2023-05-18T14:57:14.074Z,15.80
2023-05-18T15:02:13.650Z,15.60
2023-05-18T15:07:13.572Z,15.50
2023-05-18T15:12:13.614Z,15.34
2023-05-18T15:17:18.075Z,15.30
2023-05-18T15:22:17.488Z,15.20
2023-05-18T15:27:16.762Z,15.10
2023-05-18T15:32:17.982Z,15.08
2023-05-18T15:37:17.293Z,15.00
2023-05-18T15:42:16.523Z,15.10
2023-05-18T15:47:16.922Z,15.20
2023-05-18T15:52:18.619Z,15.20
2023-05-18T15:57:18.036Z,15.22
2023-05-18T16:02:18.180Z,15.24
2023-05-18T16:07:19.830Z,15.30
2023-05-18T16:12:20.147Z,15.30
2023-05-18T16:17:20.482Z,15.30
2023-05-18T16:22:19.944Z,15.24
2023-05-18T16:27:22.386Z,15.20
2023-05-18T16:32:22.692Z,15.10
2023-05-18T16:37:22.275Z,15.10
2023-05-18T16:42:23.087Z,15.04
2023-05-18T16:47:23.204Z,15.00
2023-05-18T16:52:23.066Z,14.90
2023-05-18T16:57:26.710Z,14.90
2023-05-18T17:02:27.138Z,14.80
2023-05-18T17:07:27.172Z,14.70
2023-05-18T17:12:26.562Z,14.68
2023-05-18T17:17:26.713Z,14.60
2023-05-18T17:22:25.588Z,14.52
2023-05-18T17:27:24.844Z,14.50
2023-05-18T17:32:24.760Z,14.40
2023-05-18T17:37:23.864Z,14.32
2023-05-18T17:42:23.937Z,14.30
2023-05-18T17:47:24.342Z,14.20
2023-05-18T17:52:23.665Z,14.20
2023-05-18T17:57:23.586Z,14.10
2023-05-18T18:02:23.295Z,14.10
2023-05-18T18:07:22.663Z,14.10
2023-05-18T18:12:22.107Z,14.00
2023-05-18T18:17:23.143Z,13.96
2023-05-18T18:22:23.341Z,13.90
2023-05-18T18:27:23.683Z,13.80
2023-05-18T18:33:21.463Z,13.80
2023-05-18T18:38:21.862Z,13.76
2023-05-18T18:43:22.566Z,13.70
2023-05-18T18:48:22.747Z,13.70
2023-05-18T18:53:22.526Z,13.62
2023-05-18T18:58:24.451Z,13.60
2023-05-18T19:03:26.430Z,13.50
2023-05-18T19:08:26.058Z,13.40
2023-05-18T19:13:25.556Z,13.30
2023-05-18T19:18:25.162Z,13.20
2023-05-18T19:23:24.668Z,13.20
2023-05-18T19:28:24.094Z,13.10
2023-05-18T19:33:23.751Z,13.10
2023-05-18T19:38:23.212Z,13.00
2023-05-18T19:43:23.369Z,13.00
2023-05-18T19:48:23.021Z,12.92
2023-05-18T19:53:23.098Z,12.90
2023-05-18T19:58:23.340Z,12.90
2023-05-18T20:03:22.449Z,12.80
2023-05-18T20:08:23.325Z,12.80
2023-05-18T20:13:24.522Z,12.70
2023-05-18T20:18:24.051Z,12.70
2023-05-18T20:23:23.238Z,12.62
2023-05-18T20:28:22.480Z,12.60
2023-05-18T20:33:22.858Z,12.60
2023-05-18T20:38:26.140Z,12.60
2023-05-18T20:43:25.452Z,12.50
2023-05-18T20:48:27.032Z,12.50
2023-05-18T20:53:27.679Z,12.50
2023-05-18T20:58:27.546Z,12.50
2023-05-18T21:03:26.949Z,12.50
2023-05-18T21:08:29.781Z,12.50
2023-05-18T21:13:29.103Z,12.50
2023-05-18T21:18:28.681Z,12.48
2023-05-18T21:23:27.904Z,12.44
2023-05-18T21:28:27.954Z,12.40
2023-05-18T21:33:27.969Z,12.40
2023-05-18T21:38:26.805Z,12.40
2023-05-18T21:43:27.023Z,12.40
2023-05-18T21:48:26.524Z,12.40
2023-05-18T21:53:27.063Z,12.40
2023-05-18T21:58:26.147Z,12.40
2023-05-18T22:03:25.463Z,12.34
2023-05-18T22:08:25.296Z,12.38
2023-05-18T22:13:24.572Z,12.30
2023-05-18T22:18:27.059Z,12.30
2023-05-18T22:23:27.173Z,12.30
2023-05-18T22:28:27.048Z,12.30
2023-05-18T22:33:26.060Z,12.30
2023-05-18T22:38:25.780Z,12.30
2023-05-18T22:43:27.118Z,12.22
2023-05-18T22:48:27.139Z,12.20
2023-05-18T22:53:26.765Z,12.20
2023-05-18T22:58:25.806Z,12.20
2023-05-18T23:03:25.229Z,12.18
2023-05-18T23:08:24.622Z,12.10
2023-05-18T23:13:23.819Z,12.10
2023-05-18T23:18:26.695Z,12.10
2023-05-18T23:23:26.070Z,12.06
2023-05-18T23:28:25.078Z,12.00
2023-05-18T23:33:25.723Z,12.00
2023-05-18T23:38:34.727Z,11.90
2023-05-18T23:43:38.674Z,11.90
2023-05-18T23:48:39.157Z,11.90
2023-05-18T23:53:38.962Z,11.90
2023-05-18T23:58:41.172Z,11.80
